Hallwood, California
Current Conditions -  °F | °C
As of 3:58 PM on Sunday 21 Dec 2014 (Local Time) from KBAB Reporting Station
Scattered Clouds Scattered Clouds  
Wind Chill: 63°   Ceiling: Unl
Heat Index: 63°   Visibility: 10mi
Dew Point: 58°   Wind: 5mph
Humidity: 84%   Direction: 210°SSW
Pressure: 30.23"   Gusts: NA
Location:  39.1912°N, 121.489°W
Report Text: KBAB 212358Z AUTO 21004KT 10SM SCT080 17/14 A3023 RMK AO2 RAE06DZB06E08 SLP314 P0000 60000 T01700143 10178 20152 55004 $
Loading
Personal Weather Stations






























Interactive Weather Map New forecast layout! Learn more

10-Day Weather Forecast

Advertisements
Track Severe Weather on mobile